Time;durP1;ratioP1;P1;durP2;ratioP2;P2;SDS_P1;SDS_P2;PMS_P1;PMS_P2;Temp;Humidity;BMP_temperature;BMP_pressure;BME280_temperature;BME280_humidity;BME280_pressure;Samples;Min_cycle;Max_cycle;Signal;HPM_P1;HPM_P2
2021/01/13 00:01:17;;;;;;;6.53;3.05;;;;;;;4.18;48.39;101264.72;4992911;28;20530;-71
2021/01/13 00:03:45;;;;;;;4.95;3.00;;;;;;;4.18;48.50;101267.44;4994021;28;20045;-71
2021/01/13 00:06:15;;;;;;;7.22;2.88;;;;;;;4.19;48.46;101265.59;4978769;28;21021;-71
2021/01/13 00:08:44;;;;;;;6.40;3.50;;;;;;;4.16;48.44;101260.34;4980727;28;20066;-71
2021/01/13 00:11:13;;;;;;;6.18;3.40;;;;;;;4.17;48.35;101260.25;4994540;28;20042;-71
2021/01/13 00:13:41;;;;;;;6.50;3.20;;;;;;;4.17;48.41;101270.22;4994151;28;20393;-70
2021/01/13 00:16:13;;;;;;;6.75;3.20;;;;;;;4.18;48.51;101263.84;4993006;28;20434;-71
2021/01/13 00:18:40;;;;;;;6.40;3.65;;;;;;;4.17;48.40;101264.81;4993899;28;20397;-71
2021/01/13 00:21:12;;;;;;;6.97;3.40;;;;;;;4.17;48.31;101268.38;4993398;28;20042;-71
2021/01/13 00:23:42;;;;;;;5.60;3.50;;;;;;;4.16;48.46;101269.34;4994629;28;20105;-71
2021/01/13 00:26:10;;;;;;;6.53;3.60;;;;;;;4.16;48.36;101268.47;4994220;28;20034;-70
2021/01/13 00:28:37;;;;;;;6.93;4.10;;;;;;;4.13;48.45;101274.91;4993963;28;20125;-71
2021/01/13 00:31:05;;;;;;;6.68;3.78;;;;;;;4.14;48.23;101275.78;4992507;28;20043;-71
2021/01/13 00:33:32;;;;;;;7.70;4.15;;;;;;;4.13;48.40;101282.16;4994209;28;20061;-71
2021/01/13 00:36:00;;;;;;;6.65;3.97;;;;;;;4.10;48.24;101277.78;4993556;28;20093;-71
2021/01/13 00:38:27;;;;;;;7.57;3.65;;;;;;;4.08;48.27;101277.88;4994164;28;20042;-71
2021/01/13 00:40:55;;;;;;;9.40;4.35;;;;;;;4.08;48.16;101277.00;4974015;28;20038;-70
2021/01/13 00:43:22;;;;;;;7.63;3.83;;;;;;;4.06;47.80;101279.78;4989790;28;20484;-71
2021/01/13 00:45:49;;;;;;;7.93;3.50;;;;;;;4.04;48.26;101273.56;4993180;28;20125;-71
2021/01/13 00:48:18;;;;;;;6.70;3.38;;;;;;;4.04;48.18;101275.38;4994038;28;20042;-70
2021/01/13 00:50:46;;;;;;;8.18;3.50;;;;;;;4.02;48.10;101275.50;4993270;28;20138;-70
2021/01/13 00:53:13;;;;;;;7.82;3.95;;;;;;;4.00;48.17;101263.88;4992636;28;20046;-70
2021/01/13 00:55:42;;;;;;;7.30;4.05;;;;;;;4.00;48.15;101268.41;4993660;28;20038;-70
2021/01/13 00:58:10;;;;;;;7.28;3.80;;;;;;;3.97;48.33;101269.44;4993965;28;20050;-70
2021/01/13 01:00:37;;;;;;;6.93;3.55;;;;;;;3.96;48.33;101270.38;4993124;28;20058;-70
2021/01/13 01:03:05;;;;;;;7.30;3.80;;;;;;;3.96;48.58;101273.09;4992413;28;20221;-70
2021/01/13 01:05:33;;;;;;;7.68;3.30;;;;;;;3.96;48.25;101278.50;4992243;28;20529;-70
2021/01/13 01:08:01;;;;;;;8.27;3.10;;;;;;;3.95;48.51;101268.63;4993140;28;20050;-70
2021/01/13 01:10:30;;;;;;;6.78;3.53;;;;;;;3.96;48.62;101270.38;4993034;28;20049;-70
2021/01/13 01:12:59;;;;;;;6.88;3.00;;;;;;;3.96;48.38;101285.75;4993219;28;20121;-71
2021/01/13 01:15:27;;;;;;;6.47;3.05;;;;;;;3.94;48.49;101280.44;4993179;28;20125;-71
2021/01/13 01:17:54;;;;;;;5.97;3.10;;;;;;;3.95;48.40;101271.34;4993646;28;20046;-70
2021/01/13 01:20:22;;;;;;;5.45;2.78;;;;;;;3.94;48.43;101283.16;4992485;28;20108;-70
2021/01/13 01:22:51;;;;;;;7.88;3.20;;;;;;;3.95;48.74;101273.16;5008719;28;20042;-71
2021/01/13 01:25:19;;;;;;;6.05;3.30;;;;;;;3.94;48.55;101283.16;4993203;28;20046;-71
2021/01/13 01:27:48;;;;;;;8.60;3.42;;;;;;;3.94;48.38;101288.56;4993179;28;20038;-71
2021/01/13 01:30:16;;;;;;;5.25;2.92;;;;;;;3.94;48.30;101293.09;4992919;28;20101;-70
2021/01/13 01:32:45;;;;;;;5.85;2.90;;;;;;;3.94;48.18;101290.38;4993248;28;20053;-71
2021/01/13 01:35:13;;;;;;;5.78;2.80;;;;;;;3.92;48.37;101295.88;4993127;28;20038;-70
2021/01/13 01:37:41;;;;;;;6.97;2.90;;;;;;;3.92;48.32;101304.00;4993306;28;20108;-71
2021/01/13 01:40:12;;;;;;;6.07;3.25;;;;;;;3.92;48.39;101295.00;4992426;28;20505;-71
2021/01/13 01:42:44;;;;;;;5.55;2.70;;;;;;;3.93;47.93;101291.34;4992948;28;20053;-70
2021/01/13 01:45:13;;;;;;;5.80;2.63;;;;;;;3.89;48.27;101292.44;4987629;28;20489;-71
2021/01/13 01:48:22;;;;;;;5.07;2.55;;;;;;;3.91;48.09;101301.34;4989762;28;20056;-70
2021/01/13 01:50:52;;;;;;;6.82;2.72;;;;;;;3.88;48.52;101301.50;4992100;28;20046;-70
2021/01/13 01:53:29;;;;;;;6.72;3.13;;;;;;;3.90;48.01;101300.47;4993481;28;20050;-70
2021/01/13 01:56:10;;;;;;;6.97;3.30;;;;;;;3.90;48.26;101302.31;4992436;28;20410;-70
2021/01/13 01:58:38;;;;;;;5.80;3.00;;;;;;;3.87;48.27;101308.75;4994119;28;20105;-71
2021/01/13 02:01:06;;;;;;;7.25;3.05;;;;;;;3.89;48.26;101312.25;4996778;28;20066;-71
2021/01/13 02:03:43;;;;;;;7.05;2.85;;;;;;;3.91;48.05;101307.66;4997028;28;20045;-71
2021/01/13 02:06:14;;;;;;;5.05;2.55;;;;;;;3.90;48.17;101307.72;4996823;28;20126;-71
2021/01/13 02:08:42;;;;;;;7.00;2.55;;;;;;;3.88;48.43;101306.91;4995829;28;20052;-70
2021/01/13 02:11:15;;;;;;;6.93;2.60;;;;;;;3.91;48.32;101312.19;4996803;28;20395;-71
2021/01/13 02:13:44;;;;;;;6.90;2.97;;;;;;;3.87;48.26;101313.28;4996911;28;20112;-70
2021/01/13 02:16:14;;;;;;;6.38;2.95;;;;;;;3.89;48.14;101308.66;4988505;28;20430;-71
2021/01/13 02:18:42;;;;;;;7.25;2.95;;;;;;;3.87;48.15;101303.31;4995998;28;20085;-70
2021/01/13 02:21:14;;;;;;;7.75;3.75;;;;;;;3.89;48.08;101300.56;4996573;28;20047;-70
2021/01/13 02:23:47;;;;;;;6.70;3.17;;;;;;;3.88;47.86;101313.22;4996393;28;20497;-71
2021/01/13 02:26:59;;;;;;;7.25;3.05;;;;;;;3.82;48.05;101308.13;4995800;28;20052;-70
2021/01/13 02:29:35;;;;;;;7.13;4.13;;;;;;;3.82;48.01;101310.81;4999150;28;20105;-71
2021/01/13 02:32:15;;;;;;;10.05;3.75;;;;;;;3.86;48.02;101306.16;4996680;28;20061;-70
2021/01/13 02:34:52;;;;;;;5.55;2.85;;;;;;;3.84;48.04;101310.75;4996202;28;20053;-71
2021/01/13 02:37:37;;;;;;;7.10;3.30;;;;;;;3.83;47.81;101312.56;4996288;28;20529;-71
2021/01/13 02:40:08;;;;;;;5.78;3.10;;;;;;;3.81;48.14;101313.59;4995287;28;20050;-71
2021/01/13 02:42:47;;;;;;;7.60;3.53;;;;;;;3.81;48.06;101317.19;4995285;28;20042;-71
2021/01/13 02:45:18;;;;;;;7.78;3.88;;;;;;;3.81;48.02;101316.31;4995855;28;20065;-70
2021/01/13 02:48:07;;;;;;;8.25;3.67;;;;;;;3.80;47.85;101319.97;4995992;28;20049;-71
2021/01/13 02:50:37;;;;;;;8.70;4.10;;;;;;;3.79;48.19;101318.22;4976375;28;20051;-70
2021/01/13 02:53:48;;;;;;;5.60;3.70;;;;;;;3.77;47.86;101312.03;4977330;28;20113;-70
2021/01/13 02:56:42;;;;;;;7.13;3.97;;;;;;;3.76;47.83;101313.84;4988963;28;20453;-70
2021/01/13 02:59:14;;;;;;;6.97;3.90;;;;;;;3.75;48.12;101313.91;4997480;28;20141;-70
2021/01/13 03:01:43;;;;;;;7.75;4.22;;;;;;;3.74;48.12;101318.47;4995815;28;20070;-71
2021/01/13 03:04:12;;;;;;;7.03;4.22;;;;;;;3.75;48.11;101319.34;4995630;28;20560;-71
2021/01/13 03:06:43;;;;;;;8.88;4.38;;;;;;;3.77;48.15;101328.25;5008168;28;20038;-70
2021/01/13 03:09:12;;;;;;;7.75;4.03;;;;;;;3.75;48.26;101322.91;4993502;28;20042;-70
2021/01/13 03:11:41;;;;;;;10.23;4.40;;;;;;;3.75;48.19;101324.75;4995623;28;20049;-70
2021/01/13 03:14:16;;;;;;;7.82;4.05;;;;;;;3.75;48.09;101331.03;4994678;28;20117;-70
2021/01/13 03:17:03;;;;;;;9.82;4.70;;;;;;;3.75;47.84;101317.50;4984935;28;20484;-70
2021/01/13 03:19:46;;;;;;;8.82;4.72;;;;;;;3.74;48.02;101315.75;4994567;28;20474;-70
2021/01/13 03:22:16;;;;;;;;;;;;;;;3.49;48.37;101321.47;4995806;28;20057;-70
2021/01/13 03:24:50;;;;;;;9.07;4.30;;;;;;;3.68;48.01;101326.88;4981908;28;19933;-70
2021/01/13 03:30:36;;;;;;;11.07;4.65;;;;;;;3.65;48.14;101327.03;4974431;28;20116;-70
2021/01/13 03:33:52;;;;;;;9.45;4.32;;;;;;;3.65;48.02;101333.31;4994966;28;20100;-70
2021/01/13 03:39:56;;;;;;;8.63;4.05;;;;;;;3.56;48.26;101328.34;4992764;28;19921;-70
2021/01/13 03:43:15;;;;;;;8.60;4.40;;;;;;;3.56;48.34;101324.75;5005865;28;20042;-70
2021/01/13 03:45:52;;;;;;;9.25;4.85;;;;;;;3.58;48.17;101333.66;5005732;28;20054;-70
2021/01/13 03:48:48;;;;;;;7.63;4.72;;;;;;;3.54;48.18;101330.22;4992625;28;20050;-70
2021/01/13 03:51:51;;;;;;;9.82;5.07;;;;;;;3.56;48.21;101330.16;4993461;28;20050;-70
2021/01/13 03:54:25;;;;;;;8.15;4.82;;;;;;;3.54;48.17;101330.22;4987884;28;20413;-70
2021/01/13 03:57:00;;;;;;;12.43;5.20;;;;;;;3.55;48.12;101329.28;4994447;28;20044;-70
2021/01/13 03:59:44;;;;;;;8.38;4.82;;;;;;;3.54;48.35;101324.81;5008497;28;20093;-70
2021/01/13 04:02:18;;;;;;;7.93;4.93;;;;;;;3.54;48.56;101321.22;4994528;28;20489;-70
2021/01/13 04:05:20;;;;;;;8.75;4.72;;;;;;;3.49;48.74;101320.59;4994223;28;20043;-70
2021/01/13 04:07:51;;;;;;;8.65;5.20;;;;;;;3.51;48.69;101330.41;4972593;28;20058;-70
2021/01/13 04:10:20;;;;;;;7.85;4.70;;;;;;;3.52;48.63;101325.88;4993865;28;20053;-70
2021/01/13 04:13:23;;;;;;;11.30;4.90;;;;;;;3.53;48.68;101322.22;4994126;28;20046;-69
2021/01/13 04:16:12;;;;;;;8.95;4.97;;;;;;;3.48;48.72;101319.72;4990535;28;20062;-70
2021/01/13 04:19:00;;;;;;;8.63;4.72;;;;;;;3.50;49.03;101316.94;5005951;28;20054;-70
2021/01/13 04:21:47;;;;;;;9.02;4.88;;;;;;;3.50;48.66;101309.72;4994055;28;20485;-70
2021/01/13 04:24:35;;;;;;;8.48;4.40;;;;;;;3.52;48.82;101309.63;4994593;28;20046;-70
2021/01/13 04:27:23;;;;;;;7.63;4.65;;;;;;;3.52;48.81;101307.81;4993549;28;20100;-70
2021/01/13 04:29:57;;;;;;;9.27;4.50;;;;;;;3.53;48.65;101306.88;4991592;28;20093;-70
2021/01/13 04:32:44;;;;;;;6.28;4.55;;;;;;;3.55;48.96;101309.47;4993814;28;20082;-70
2021/01/13 04:35:32;;;;;;;7.32;4.20;;;;;;;3.56;48.94;101320.22;4993043;28;20055;-70
2021/01/13 04:38:23;;;;;;;8.68;4.68;;;;;;;3.56;48.83;101320.22;4993842;28;20453;-70
2021/01/13 04:41:12;;;;;;;9.05;4.78;;;;;;;3.57;49.00;101332.78;4993867;28;20045;-71
2021/01/13 04:44:01;;;;;;;6.18;4.55;;;;;;;3.58;48.76;101339.09;4985030;28;20038;-70
2021/01/13 04:46:55;;;;;;;8.02;5.00;;;;;;;3.58;48.77;101337.25;4995844;28;20486;-70
2021/01/13 04:49:43;;;;;;;9.10;4.18;;;;;;;3.57;49.18;101340.03;4993607;28;20057;-70
2021/01/13 04:52:31;;;;;;;8.43;4.30;;;;;;;3.58;49.14;101331.84;4994013;28;20069;-71
2021/01/13 04:55:24;;;;;;;7.63;4.05;;;;;;;3.60;49.01;101329.06;4992338;28;20065;-72
2021/01/13 04:58:39;;;;;;;5.70;3.55;;;;;;;3.60;49.21;101321.84;4993945;28;20050;-72
2021/01/13 05:01:35;;;;;;;5.63;3.63;;;;;;;3.59;49.12;101311.97;4990768;28;20042;-72
2021/01/13 05:04:53;;;;;;;7.65;4.38;;;;;;;3.61;49.22;101320.03;4988391;28;20054;-72
2021/01/13 05:07:33;;;;;;;8.32;4.32;;;;;;;3.62;49.39;101314.53;4990228;28;20533;-72
2021/01/13 05:10:22;;;;;;;6.68;4.47;;;;;;;3.62;49.29;101319.94;4992235;28;20060;-72
2021/01/13 05:13:16;;;;;;;9.88;5.65;;;;;;;3.65;49.64;101316.22;4992820;28;20043;-71
2021/01/13 05:15:55;;;;;;;9.90;5.80;;;;;;;3.64;49.49;101312.63;4992110;28;20474;-72
2021/01/13 05:18:54;;;;;;;9.65;5.63;;;;;;;3.67;49.47;101315.19;4990450;28;20390;-71
2021/01/13 05:21:44;;;;;;;10.82;5.38;;;;;;;3.66;49.21;101309.84;4993068;28;20054;-71
2021/01/13 05:24:32;;;;;;;9.15;5.25;;;;;;;3.66;49.52;101305.31;4993280;28;20532;-72
2021/01/13 05:27:42;;;;;;;12.80;5.13;;;;;;;3.72;49.43;101306.81;4992756;28;20058;-72
2021/01/13 05:30:31;;;;;;;7.95;4.68;;;;;;;3.70;49.71;101297.91;4998290;28;20054;-71
2021/01/13 05:33:21;;;;;;;8.30;4.65;;;;;;;3.71;49.52;101294.25;4992761;28;20058;-72
2021/01/13 05:36:14;;;;;;;8.93;5.43;;;;;;;3.74;49.25;101295.94;4985916;28;20136;-71
2021/01/13 05:39:07;;;;;;;6.68;4.38;;;;;;;3.75;49.49;101295.84;4991804;28;20074;-72
2021/01/13 05:42:01;;;;;;;7.13;4.80;;;;;;;3.74;49.24;101288.69;4993264;28;20042;-72
2021/01/13 05:44:49;;;;;;;7.72;4.55;;;;;;;3.74;49.51;101296.81;4992722;28;20639;-70
2021/01/13 05:48:01;;;;;;;9.38;4.97;;;;;;;3.76;49.47;101302.16;4992957;28;20042;-72
2021/01/13 05:50:52;;;;;;;6.80;4.22;;;;;;;3.76;49.71;101286.78;4990888;28;20054;-72
2021/01/13 05:53:50;;;;;;;7.70;4.97;;;;;;;3.78;49.43;101279.47;4974466;28;20059;-71
2021/01/13 05:56:38;;;;;;;7.82;4.72;;;;;;;3.75;49.22;101279.63;4984384;28;20030;-71
2021/01/13 05:59:28;;;;;;;8.85;4.70;;;;;;;3.78;49.30;101286.72;4980928;28;20081;-72
2021/01/13 06:02:20;;;;;;;8.32;5.10;;;;;;;3.76;49.47;101285.91;4989761;28;20573;-72
2021/01/13 06:05:08;;;;;;;8.07;4.78;;;;;;;3.74;49.28;101277.88;4992825;28;20584;-72
2021/01/13 06:07:57;;;;;;;8.85;4.90;;;;;;;3.76;49.51;101281.38;4986370;28;20043;-72
2021/01/13 06:10:46;;;;;;;8.13;4.53;;;;;;;3.75;49.46;101278.75;4988490;28;20073;-71
2021/01/13 06:13:17;;;;;;;8.13;5.00;;;;;;;3.77;49.56;101284.97;4991820;28;20058;-71
2021/01/13 06:15:46;;;;;;;9.23;4.57;;;;;;;3.74;49.43;101277.88;4988608;28;20042;-71
2021/01/13 06:18:15;;;;;;;9.20;4.28;;;;;;;3.76;49.60;101283.22;4991624;28;20045;-71
2021/01/13 06:20:46;;;;;;;8.57;4.72;;;;;;;3.77;49.53;101277.72;4992856;28;20462;-71
2021/01/13 06:23:15;;;;;;;8.02;4.63;;;;;;;3.77;49.69;101282.25;4991851;28;20445;-71
2021/01/13 06:25:44;;;;;;;9.00;4.60;;;;;;;3.75;49.54;101282.31;4990567;28;20042;-71
2021/01/13 06:29:01;;;;;;;9.05;5.22;;;;;;;3.76;50.00;101285.91;4990254;28;20047;-71
2021/01/13 06:31:42;;;;;;;10.15;4.88;;;;;;;3.75;49.56;101285.03;4991837;28;20045;-71
2021/01/13 06:34:27;;;;;;;7.10;4.30;;;;;;;3.76;49.92;101286.78;4992366;28;20038;-70
2021/01/13 06:37:14;;;;;;;7.80;4.60;;;;;;;3.76;49.85;101286.78;4990406;28;20044;-71
2021/01/13 06:39:42;;;;;;;8.50;4.28;;;;;;;3.74;49.77;101277.88;4991603;28;20540;-71
2021/01/13 06:42:10;;;;;;;7.40;4.43;;;;;;;3.76;49.57;101291.31;4991412;28;20101;-71
2021/01/13 06:44:45;;;;;;;7.32;3.85;;;;;;;3.78;49.67;101282.19;4993144;28;20046;-73
2021/01/13 06:47:12;;;;;;;7.28;4.22;;;;;;;3.75;49.58;101279.63;5009458;28;20033;-70
2021/01/13 06:49:40;;;;;;;9.82;4.70;;;;;;;3.76;49.96;101286.78;4994612;28;20441;-72
2021/01/13 06:52:08;;;;;;;7.47;4.18;;;;;;;3.77;49.49;101277.72;4987843;28;20045;-70
2021/01/13 06:54:48;;;;;;;8.43;4.40;;;;;;;3.78;49.93;101276.78;4996742;28;20092;-71
2021/01/13 06:57:19;;;;;;;10.45;5.13;;;;;;;3.77;49.55;101276.84;4993692;28;20350;-70
2021/01/13 06:59:48;;;;;;;9.23;4.60;;;;;;;3.77;49.66;101284.97;4993985;28;20038;-69
2021/01/13 07:02:15;;;;;;;9.18;4.85;;;;;;;3.76;49.46;101283.22;4993138;28;20038;-70
2021/01/13 07:04:46;;;;;;;8.55;5.10;;;;;;;3.78;49.63;101284.88;4992566;28;20046;-70
2021/01/13 07:07:14;;;;;;;7.43;4.88;;;;;;;3.74;49.64;101280.56;5009641;28;20039;-70
2021/01/13 07:09:44;;;;;;;7.93;5.32;;;;;;;3.74;49.47;101275.16;4994480;28;20131;-70
2021/01/13 07:12:14;;;;;;;9.32;5.28;;;;;;;3.74;49.13;101279.69;4993598;28;20096;-69
2021/01/13 07:14:44;;;;;;;9.65;5.72;;;;;;;3.73;49.71;101286.06;4986430;28;20046;-70
2021/01/13 07:17:15;;;;;;;11.85;5.50;;;;;;;3.71;49.55;101286.13;4993467;28;20421;-70
2021/01/13 07:19:47;;;;;;;10.50;5.40;;;;;;;3.70;49.31;101284.38;4993482;28;20065;-69
2021/01/13 07:22:16;;;;;;;7.13;5.10;;;;;;;3.68;49.65;101289.88;4993118;28;20130;-70
2021/01/13 07:24:45;;;;;;;10.38;4.38;;;;;;;3.68;49.98;101283.59;5010378;28;20049;-70
2021/01/13 07:27:13;;;;;;;8.20;4.80;;;;;;;3.69;50.04;101288.06;4992071;28;20046;-71
2021/01/13 07:29:41;;;;;;;8.68;4.88;;;;;;;3.69;49.84;101283.53;4990412;28;20128;-71
2021/01/13 07:32:10;;;;;;;12.73;5.85;;;;;;;3.71;49.71;101278.00;4984100;28;20041;-70
2021/01/13 07:34:39;;;;;;;9.30;5.28;;;;;;;3.72;49.89;101289.72;5005564;28;20093;-70
2021/01/13 07:37:10;;;;;;;10.95;5.40;;;;;;;3.73;49.54;101286.06;4993261;28;20042;-69
2021/01/13 07:40:23;;;;;;;8.98;5.32;;;;;;;3.74;49.55;101287.81;5008489;28;20101;-68
2021/01/13 07:43:05;;;;;;;9.60;5.80;;;;;;;3.69;49.40;101290.75;4928356;29;20058;-69
2021/01/13 07:45:42;;;;;;;12.40;6.03;;;;;;;3.70;49.60;101292.50;4932092;29;20048;-70
2021/01/13 07:48:42;;;;;;;12.23;5.97;;;;;;;3.70;49.23;101289.78;4931476;29;20068;-70
2021/01/13 07:51:18;;;;;;;11.65;6.40;;;;;;;3.65;49.50;101289.16;4927916;29;20467;-69
2021/01/13 07:54:04;;;;;;;10.35;6.07;;;;;;;3.67;49.43;101296.25;4933341;29;20463;-69
2021/01/13 07:56:35;;;;;;;11.05;5.97;;;;;;;3.63;49.48;101296.47;4930608;29;20073;-70
2021/01/13 07:59:34;;;;;;;10.50;6.20;;;;;;;3.62;49.55;101295.59;4926375;29;20082;-70
2021/01/13 08:02:37;;;;;;;11.63;6.63;;;;;;;3.60;49.35;101300.19;4930125;29;20448;-71
2021/01/13 08:05:43;;;;;;;9.77;5.88;;;;;;;3.56;49.52;101290.47;4902011;29;20056;-70
2021/01/13 08:08:12;;;;;;;10.52;6.00;;;;;;;3.53;49.58;101292.47;4913615;29;20130;-71
2021/01/13 08:10:42;;;;;;;10.15;5.70;;;;;;;3.54;49.23;101305.00;4930847;29;20387;-70
2021/01/13 08:13:39;;;;;;;11.23;5.82;;;;;;;3.50;49.66;101303.41;4928306;29;20052;-69
2021/01/13 08:16:28;;;;;;;9.98;5.57;;;;;;;3.51;49.68;101302.47;4931375;29;20132;-69
2021/01/13 08:19:38;;;;;;;9.68;5.80;;;;;;;3.48;49.70;101306.19;4926655;28;20056;-69
2021/01/13 08:22:32;;;;;;;10.15;5.38;;;;;;;3.46;49.94;101316.22;4992932;28;20189;-69
2021/01/13 08:25:12;;;;;;;10.05;5.70;;;;;;;3.45;49.43;101313.59;4991217;28;20097;-69
2021/01/13 08:27:42;;;;;;;10.00;5.50;;;;;;;3.45;49.79;101313.59;4992276;28;20079;-70
2021/01/13 08:30:17;;;;;;;11.30;5.68;;;;;;;3.46;49.68;101302.69;4990573;28;20045;-69
2021/01/13 08:32:48;;;;;;;11.30;5.55;;;;;;;3.45;49.64;101305.50;4990810;28;20042;-69
2021/01/13 08:35:25;;;;;;;11.23;5.80;;;;;;;3.46;49.72;101308.09;4988250;28;20050;-70
2021/01/13 08:38:05;;;;;;;10.48;5.97;;;;;;;3.46;49.87;101307.22;4990324;28;20406;-69
2021/01/13 08:40:37;;;;;;;8.52;6.28;;;;;;;3.43;49.83;101302.84;4988489;28;20512;-70
2021/01/13 08:43:09;;;;;;;8.57;5.32;;;;;;;3.47;49.86;101301.75;4992573;28;20065;-70
2021/01/13 08:45:40;;;;;;;11.18;5.60;;;;;;;3.45;50.08;101305.50;4990224;28;20354;-70
2021/01/13 08:48:12;;;;;;;10.57;6.10;;;;;;;3.48;50.04;101302.63;4992374;28;20504;-70
2021/01/13 08:50:41;;;;;;;10.20;5.90;;;;;;;3.43;49.95;101305.56;4989938;28;20458;-70
2021/01/13 08:53:21;;;;;;;9.68;5.88;;;;;;;3.46;49.77;101299.97;4980377;28;20045;-70
2021/01/13 08:55:53;;;;;;;10.38;6.18;;;;;;;3.46;49.82;101299.97;5005153;28;20074;-69
2021/01/13 08:58:27;;;;;;;12.18;6.15;;;;;;;3.44;50.07;101292.91;5003570;28;20039;-69
2021/01/13 09:01:02;;;;;;;9.77;6.22;;;;;;;3.47;50.24;101304.44;4986378;28;20074;-69
2021/01/13 09:03:35;;;;;;;9.30;6.22;;;;;;;3.45;50.13;101300.97;4990162;28;20039;-68
2021/01/13 09:06:18;;;;;;;;;;;;;;;3.20;50.97;101304.00;4983995;28;20042;-68
2021/01/13 09:08:48;;;;;;;11.20;5.65;;;;;;;3.40;50.26;101300.28;4986890;28;19925;-69
2021/01/13 09:11:31;;;;;;;10.20;5.97;;;;;;;3.44;50.32;101306.44;4989608;28;20442;-69
2021/01/13 09:14:13;;;;;;;;;;;;;;;3.20;51.04;101313.94;5001526;28;20050;-69
2021/01/13 09:16:43;;;;;;;9.68;4.90;;;;;;;3.40;50.19;101305.69;5001057;28;19925;-69
2021/01/13 09:19:11;;;;;;;10.25;5.93;;;;;;;3.44;50.30;101311.84;4989632;28;20105;-69
2021/01/13 09:21:40;;;;;;;9.13;5.57;;;;;;;3.46;50.36;101305.38;4989955;28;20073;-69
2021/01/13 09:24:09;;;;;;;9.98;5.15;;;;;;;3.49;50.34;101313.38;4987396;28;20050;-70
2021/01/13 09:26:39;;;;;;;11.00;5.47;;;;;;;3.52;50.61;101306.94;4989305;28;20062;-69
2021/01/13 09:29:08;;;;;;;9.50;5.38;;;;;;;3.54;50.51;101300.47;4987746;28;20073;-70
2021/01/13 09:31:39;;;;;;;9.65;6.22;;;;;;;3.58;51.07;101301.22;4986467;28;20505;-69
2021/01/13 09:34:08;;;;;;;8.80;5.93;;;;;;;3.60;50.74;101299.31;4989555;28;20121;-69
2021/01/13 09:36:55;;;;;;;11.55;5.65;;;;;;;3.64;50.81;101296.41;4985108;28;20053;-70
2021/01/13 09:39:33;;;;;;;7.97;4.75;;;;;;;3.71;50.88;101299.66;4987446;28;20081;-69
2021/01/13 09:42:02;;;;;;;10.55;5.55;;;;;;;3.73;50.84;101305.00;4989504;28;20050;-69
2021/01/13 09:44:32;;;;;;;9.07;5.15;;;;;;;3.77;50.77;101303.91;4991694;28;20070;-69
2021/01/13 09:47:23;;;;;;;8.50;5.38;;;;;;;3.79;50.88;101307.38;4986914;28;20034;-69
2021/01/13 09:49:53;;;;;;;10.77;5.35;;;;;;;3.82;50.77;101302.69;4991643;28;20053;-69
2021/01/13 09:52:21;;;;;;;7.95;5.00;;;;;;;3.85;50.54;101305.25;4991084;28;20375;-70
2021/01/13 09:54:50;;;;;;;8.82;5.22;;;;;;;3.89;50.82;101305.97;5005368;28;20041;-70
2021/01/13 09:57:21;;;;;;;11.15;4.97;;;;;;;3.94;50.84;101307.50;4988140;28;20038;-70
2021/01/13 10:00:00;;;;;;;9.38;5.05;;;;;;;3.97;50.50;101304.63;4985218;28;20090;-70
2021/01/13 10:02:28;;;;;;;9.43;5.10;;;;;;;3.98;50.89;101297.38;4990517;28;20062;-71
2021/01/13 10:04:57;;;;;;;8.32;5.07;;;;;;;4.02;50.72;101296.28;4990141;28;20125;-68
2021/01/13 10:07:30;;;;;;;7.40;5.20;;;;;;;4.07;50.72;101289.66;4986093;28;20034;-69
2021/01/13 10:09:57;;;;;;;8.07;5.40;;;;;;;4.05;50.85;101298.81;4988888;28;20035;-69
2021/01/13 10:12:37;;;;;;;7.68;5.03;;;;;;;4.12;50.50;101288.53;4990953;28;20104;-70
2021/01/13 10:15:06;;;;;;;14.20;5.55;;;;;;;4.13;50.77;101295.69;4988896;28;20038;-70
2021/01/13 10:17:35;;;;;;;6.75;5.10;;;;;;;4.14;50.54;101292.91;4990546;28;20034;-69
2021/01/13 10:20:16;;;;;;;9.55;5.50;;;;;;;4.18;50.60;101291.81;4993717;28;20042;-69
2021/01/13 10:22:47;;;;;;;10.50;5.47;;;;;;;4.18;50.64;101293.63;4988117;28;20125;-70
2021/01/13 10:25:25;;;;;;;7.32;4.93;;;;;;;4.24;50.52;101298.72;4993799;28;20046;-69
2021/01/13 10:27:54;;;;;;;9.27;5.13;;;;;;;4.23;50.41;101300.53;4992684;28;20046;-71
2021/01/13 10:30:23;;;;;;;11.52;5.60;;;;;;;4.22;50.33;101290.66;4992461;28;20438;-70
2021/01/13 10:32:51;;;;;;;10.85;5.95;;;;;;;4.25;50.53;101298.63;5008583;28;20057;-69
2021/01/13 10:35:21;;;;;;;9.10;5.68;;;;;;;4.27;50.68;101290.44;4992245;28;20046;-69
2021/01/13 10:37:55;;;;;;;10.93;5.50;;;;;;;4.29;50.51;101291.22;4995257;28;20561;-69
2021/01/13 10:40:24;;;;;;;9.82;5.07;;;;;;;4.29;50.49;101296.63;4990220;28;20513;-69
2021/01/13 10:42:54;;;;;;;11.10;5.50;;;;;;;4.32;50.70;101280.22;4992358;28;20429;-69
2021/01/13 10:45:25;;;;;;;7.82;4.95;;;;;;;4.33;50.71;101287.41;4991402;28;20133;-69
2021/01/13 10:47:57;;;;;;;9.18;5.60;;;;;;;4.36;50.40;101281.78;4994649;28;20046;-69
2021/01/13 10:50:26;;;;;;;9.82;5.38;;;;;;;4.38;50.66;101282.59;4995513;28;20397;-69
2021/01/13 10:52:56;;;;;;;9.02;5.22;;;;;;;4.40;50.80;101288.81;4992343;28;20069;-69
2021/01/13 10:55:25;;;;;;;9.45;5.75;;;;;;;4.41;51.06;101277.03;4994218;28;20473;-69
2021/01/13 10:57:54;;;;;;;8.65;5.72;;;;;;;4.43;50.48;101281.41;4991785;28;20039;-70
2021/01/13 11:00:25;;;;;;;9.63;6.43;;;;;;;4.45;50.57;101275.88;4994694;28;20133;-69
2021/01/13 11:02:54;;;;;;;8.20;5.63;;;;;;;4.47;50.65;101282.09;4995363;28;20038;-68
2021/01/13 11:05:22;;;;;;;7.70;5.18;;;;;;;4.48;50.59;101275.72;4990165;28;20050;-69
2021/01/13 11:07:51;;;;;;;8.65;5.53;;;;;;;4.50;50.72;101273.81;4992043;28;20034;-69
2021/01/13 11:10:21;;;;;;;10.35;5.32;;;;;;;4.51;50.74;101269.28;4994619;28;20096;-69
2021/01/13 11:12:58;;;;;;;7.25;5.00;;;;;;;4.53;50.61;101270.94;4982867;28;20050;-70
2021/01/13 11:15:27;;;;;;;9.23;4.78;;;;;;;4.56;50.68;101267.19;4994562;28;20500;-70
2021/01/13 11:17:56;;;;;;;9.43;5.13;;;;;;;4.57;50.51;101264.41;4994778;28;20054;-70
2021/01/13 11:20:28;;;;;;;10.45;5.13;;;;;;;4.60;50.71;101257.94;4991233;28;20035;-70
2021/01/13 11:22:57;;;;;;;10.43;6.03;;;;;;;4.58;50.84;101259.84;4991296;28;20048;-70
2021/01/13 11:25:27;;;;;;;10.25;5.72;;;;;;;4.63;50.44;101253.22;4994206;28;20052;-70
2021/01/13 11:27:58;;;;;;;7.57;5.20;;;;;;;4.68;50.60;101258.41;4992987;28;20065;-70
2021/01/13 11:30:27;;;;;;;9.65;5.20;;;;;;;4.67;50.69;101252.09;4992379;28;20093;-70
2021/01/13 11:32:56;;;;;;;8.32;5.50;;;;;;;4.70;50.56;101253.75;4992770;28;20053;-69
2021/01/13 11:35:29;;;;;;;9.15;5.15;;;;;;;4.74;50.52;101256.22;4993148;28;20046;-70
2021/01/13 11:38:41;;;;;;;8.93;5.43;;;;;;;4.72;50.31;101255.41;4993135;28;20034;-69
2021/01/13 11:41:56;;;;;;;8.40;5.55;;;;;;;4.70;50.40;101251.03;4989640;28;20042;-71
2021/01/13 11:44:29;;;;;;;10.15;5.93;;;;;;;4.73;50.48;101246.31;4957456;28;20375;-68
2021/01/13 11:47:09;;;;;;;9.52;5.18;;;;;;;4.75;50.18;101240.81;4989899;28;20041;-68
2021/01/13 11:49:44;;;;;;;8.73;5.28;;;;;;;4.77;50.36;101249.75;5003043;28;20063;-69
2021/01/13 11:52:16;;;;;;;9.27;5.50;;;;;;;4.76;50.28;101235.31;4986842;28;20038;-69
2021/01/13 11:54:52;;;;;;;9.45;5.63;;;;;;;4.78;50.26;101238.81;4988675;28;21471;-69
2021/01/13 11:57:22;;;;;;;9.10;5.13;;;;;;;4.76;50.31;101235.31;4992332;28;20417;-69
2021/01/13 11:59:51;;;;;;;10.88;5.00;;;;;;;4.79;50.42;101226.13;4991023;28;20042;-69
2021/01/13 12:02:22;;;;;;;9.13;4.85;;;;;;;4.80;50.14;101223.34;4993086;28;20054;-69
2021/01/13 12:04:51;;;;;;;12.00;5.20;;;;;;;4.79;50.40;101218.88;4991300;28;20092;-70
2021/01/13 12:07:22;;;;;;;9.63;5.10;;;;;;;4.78;50.34;101209.00;4984452;28;20043;-68
2021/01/13 12:10:10;;;;;;;9.68;5.00;;;;;;;4.81;50.29;101197.97;4990564;28;20572;-70
2021/01/13 12:12:39;;;;;;;7.70;4.30;;;;;;;4.81;50.46;101197.97;5008562;28;20528;-68
2021/01/13 12:15:11;;;;;;;10.15;5.05;;;;;;;4.83;50.68;101190.66;4989323;28;20512;-68
2021/01/13 12:17:49;;;;;;;9.73;5.05;;;;;;;4.84;50.50;101189.69;4992314;28;20121;-68
2021/01/13 12:20:32;;;;;;;7.95;4.50;;;;;;;4.89;50.51;101184.00;4990726;28;20045;-69
2021/01/13 12:22:59;;;;;;;7.28;4.78;;;;;;;4.91;50.81;101182.06;4986979;28;20473;-70
2021/01/13 12:25:27;;;;;;;8.45;4.80;;;;;;;4.95;50.58;101180.91;4990001;28;20405;-70